Time;durP1;ratioP1;P1;durP2;ratioP2;P2;SDS_P1;SDS_P2;PMS_P1;PMS_P2;Temp;Humidity;BMP_temperature;BMP_pressure;BME280_temperature;BME280_humidity;BME280_pressure;Samples;Min_cycle;Max_cycle;Signal;HPM_P1;HPM_P2
2022/03/24 00:00:40;;;;;;;47.92;32.85;;;;;;;;;;4997497;28;20054;-93
2022/03/24 00:03:09;;;;;;;53.17;37.80;;;;;;;;;;4980532;28;20465;-92
2022/03/24 00:05:37;;;;;;;55.33;37.75;;;;;;;;;;4980406;28;20046;-93
2022/03/24 00:08:05;;;;;;;51.33;36.70;;;;;;;;;;4979896;28;20118;-93
2022/03/24 00:10:31;;;;;;;54.75;38.72;;;;;;;;;;4979743;28;20038;-92
2022/03/24 00:12:59;;;;;;;56.55;38.00;;;;;;;;;;4995941;28;20354;-92
2022/03/24 00:15:25;;;;;;;54.15;38.53;;;;;;;;;;4996190;28;20053;-94
2022/03/24 00:17:52;;;;;;;52.55;37.03;;;;;;;;;;4979821;28;20046;-93
2022/03/24 00:20:18;;;;;;;47.38;34.10;;;;;;;;;;4996107;28;20046;-92
2022/03/24 00:22:44;;;;;;;49.00;36.30;;;;;;;;;;4995562;28;20042;-92
2022/03/24 00:25:11;;;;;;;45.13;31.95;;;;;;;;;;4995243;28;20046;-92
2022/03/24 00:27:40;;;;;;;46.92;34.70;;;;;;;;;;4979793;28;20038;-93
2022/03/24 00:30:09;;;;;;;48.50;33.92;;;;;;;;;;4995305;28;20043;-92
2022/03/24 00:32:43;;;;;;;46.45;31.75;;;;;;;;;;4979553;28;20077;-92
2022/03/24 00:35:11;;;;;;;47.72;34.60;;;;;;;;;;4979360;28;20039;-93
2022/03/24 00:37:39;;;;;;;50.20;36.65;;;;;;;;;;4979043;28;20085;-94
2022/03/24 00:40:07;;;;;;;50.20;34.05;;;;;;;;;;4995482;28;20045;-92
2022/03/24 00:42:35;;;;;;;45.00;30.45;;;;;;;;;;4978407;28;20042;-92
2022/03/24 00:45:12;;;;;;;47.45;30.88;;;;;;;;;;4980121;28;20038;-93
2022/03/24 00:47:43;;;;;;;41.78;30.20;;;;;;;;;;4998045;28;20187;-93
2022/03/24 00:50:10;;;;;;;47.47;30.73;;;;;;;;;;4998728;28;20560;-92
2022/03/24 00:52:41;;;;;;;48.17;33.38;;;;;;;;;;4982472;28;20048;-93
2022/03/24 00:55:12;;;;;;;48.38;34.83;;;;;;;;;;4998257;28;20397;-92
2022/03/24 00:57:39;;;;;;;54.63;36.58;;;;;;;;;;4980418;28;20060;-93
2022/03/24 01:00:06;;;;;;;57.88;40.15;;;;;;;;;;4997975;28;20037;-92
2022/03/24 01:02:37;;;;;;;68.07;41.78;;;;;;;;;;4981771;28;20042;-92
2022/03/24 01:05:07;;;;;;;55.38;39.28;;;;;;;;;;4981908;28;20077;-92
2022/03/24 01:07:34;;;;;;;58.53;38.88;;;;;;;;;;4998203;28;20050;-93
2022/03/24 01:10:00;;;;;;;55.53;38.70;;;;;;;;;;4997896;28;20046;-93
2022/03/24 01:12:26;;;;;;;60.92;43.38;;;;;;;;;;4997708;28;20072;-92
2022/03/24 01:14:52;;;;;;;55.75;40.15;;;;;;;;;;4997921;28;20053;-92
2022/03/24 01:17:18;;;;;;;51.65;37.40;;;;;;;;;;4981970;28;20046;-92
2022/03/24 01:19:46;;;;;;;52.22;38.08;;;;;;;;;;4997987;28;20042;-92
2022/03/24 01:22:12;;;;;;;58.15;37.80;;;;;;;;;;4982193;28;20374;-93
2022/03/24 01:24:41;;;;;;;50.50;35.72;;;;;;;;;;4981080;28;20041;-91
2022/03/24 01:27:10;;;;;;;55.00;38.88;;;;;;;;;;4982078;28;20097;-94
2022/03/24 01:29:41;;;;;;;56.20;38.30;;;;;;;;;;4982039;28;20108;-92
2022/03/24 01:32:10;;;;;;;52.80;36.00;;;;;;;;;;4997278;28;20154;-92
2022/03/24 01:34:36;;;;;;;50.72;34.83;;;;;;;;;;4997238;28;20037;-92
2022/03/24 01:37:03;;;;;;;51.33;34.65;;;;;;;;;;4981617;28;20044;-94
2022/03/24 01:39:29;;;;;;;52.35;37.92;;;;;;;;;;4996927;28;20042;-91
2022/03/24 01:41:58;;;;;;;60.30;40.83;;;;;;;;;;4981221;28;20493;-93
2022/03/24 01:44:33;;;;;;;62.38;41.05;;;;;;;;;;4997369;28;20104;-91
2022/03/24 01:47:08;;;;;;;60.85;39.67;;;;;;;;;;4981221;28;20501;-92
2022/03/24 01:49:39;;;;;;;55.90;40.05;;;;;;;;;;4982452;28;20042;-93
2022/03/24 01:52:07;;;;;;;61.42;39.40;;;;;;;;;;4997790;28;20037;-93
2022/03/24 01:54:33;;;;;;;57.38;39.00;;;;;;;;;;4982879;28;20097;-93
2022/03/24 01:57:00;;;;;;;57.17;40.67;;;;;;;;;;4997651;28;20085;-93
2022/03/24 01:59:26;;;;;;;60.03;39.10;;;;;;;;;;4980757;28;20033;-92
2022/03/24 02:01:55;;;;;;;56.85;40.22;;;;;;;;;;4981731;28;20045;-93
2022/03/24 02:04:23;;;;;;;66.25;43.90;;;;;;;;;;4997317;28;20046;-93
2022/03/24 02:06:51;;;;;;;64.13;43.28;;;;;;;;;;4980988;28;20048;-95
2022/03/24 02:09:19;;;;;;;67.22;45.95;;;;;;;;;;4980941;28;20401;-94
2022/03/24 02:11:46;;;;;;;65.00;44.65;;;;;;;;;;4996957;28;20049;-90
2022/03/24 02:14:12;;;;;;;65.05;42.80;;;;;;;;;;4996488;28;20046;-92
2022/03/24 02:16:39;;;;;;;57.10;40.35;;;;;;;;;;4996981;28;20042;-94
2022/03/24 02:19:33;;;;;;;65.18;43.22;;;;;;;;;;4980183;28;20034;-92
2022/03/24 02:22:20;;;;;;;58.50;41.35;;;;;;;;;;4976984;28;20049;-92
2022/03/24 02:24:48;;;;;;;65.38;44.97;;;;;;;;;;4980485;28;20569;-91
2022/03/24 02:27:14;;;;;;;63.92;41.42;;;;;;;;;;4980471;28;20393;-93
2022/03/24 02:29:43;;;;;;;59.05;40.45;;;;;;;;;;4997425;28;20128;-93
2022/03/24 02:32:13;;;;;;;57.97;40.58;;;;;;;;;;4999019;28;20065;-94
2022/03/24 02:34:47;;;;;;;60.85;41.22;;;;;;;;;;4997893;28;20507;-92
2022/03/24 02:37:17;;;;;;;60.25;40.67;;;;;;;;;;4981198;28;20038;-92
2022/03/24 02:39:51;;;;;;;55.58;38.03;;;;;;;;;;4996560;28;20042;-93
2022/03/24 02:42:20;;;;;;;56.20;38.28;;;;;;;;;;4997101;28;20046;-92
2022/03/24 02:44:50;;;;;;;57.85;39.38;;;;;;;;;;5001234;28;20045;-93
2022/03/24 02:47:19;;;;;;;52.72;37.55;;;;;;;;;;4982195;28;20057;-91
2022/03/24 02:49:48;;;;;;;57.88;37.92;;;;;;;;;;4981548;28;20425;-93
2022/03/24 02:52:14;;;;;;;60.20;39.50;;;;;;;;;;4998050;28;20436;-93
2022/03/24 02:54:43;;;;;;;59.40;40.30;;;;;;;;;;4981161;28;20046;-94
2022/03/24 02:57:13;;;;;;;62.63;40.95;;;;;;;;;;4983607;28;20133;-94
2022/03/24 02:59:40;;;;;;;57.72;38.50;;;;;;;;;;4999842;28;20044;-93
2022/03/24 03:02:14;;;;;;;55.85;37.85;;;;;;;;;;4984625;28;20481;-92
2022/03/24 03:04:41;;;;;;;58.35;38.25;;;;;;;;;;4982818;28;20033;-93
2022/03/24 03:07:18;;;;;;;55.53;38.78;;;;;;;;;;5000946;28;20042;-92
2022/03/24 03:09:47;;;;;;;63.95;41.65;;;;;;;;;;4985702;28;20041;-93
2022/03/24 03:12:19;;;;;;;73.68;47.03;;;;;;;;;;5009008;28;20077;-93
2022/03/24 03:14:56;;;;;;;59.50;41.22;;;;;;;;;;5002335;28;20042;-93
2022/03/24 03:17:28;;;;;;;52.25;37.30;;;;;;;;;;4991439;28;20080;-93
2022/03/24 03:19:54;;;;;;;58.47;38.17;;;;;;;;;;5004080;28;20046;-93
2022/03/24 03:22:29;;;;;;;57.47;40.03;;;;;;;;;;5000369;28;20042;-93
2022/03/24 03:24:58;;;;;;;63.80;42.42;;;;;;;;;;4983637;28;20038;-95
2022/03/24 03:27:29;;;;;;;59.63;39.28;;;;;;;;;;5002122;28;20037;-92
2022/03/24 03:29:55;;;;;;;60.50;40.78;;;;;;;;;;5002562;28;20101;-93
2022/03/24 03:32:24;;;;;;;60.00;39.80;;;;;;;;;;4985009;28;20038;-94
2022/03/24 03:34:50;;;;;;;66.15;42.83;;;;;;;;;;5000083;28;20033;-92
2022/03/24 03:37:19;;;;;;;62.85;43.10;;;;;;;;;;4986026;28;20081;-93
2022/03/24 03:39:45;;;;;;;65.75;42.55;;;;;;;;;;4985401;28;20069;-92
2022/03/24 03:42:13;;;;;;;65.50;44.45;;;;;;;;;;4984429;28;20128;-91
2022/03/24 03:44:40;;;;;;;67.40;44.50;;;;;;;;;;4999811;28;20045;-92
2022/03/24 03:47:08;;;;;;;62.97;44.80;;;;;;;;;;4983061;28;20205;-94
2022/03/24 03:49:37;;;;;;;61.30;41.30;;;;;;;;;;4983189;28;20058;-93
2022/03/24 03:52:05;;;;;;;61.08;41.58;;;;;;;;;;4984779;28;20045;-94
2022/03/24 03:54:31;;;;;;;69.38;44.05;;;;;;;;;;4983867;28;20135;-93
2022/03/24 03:56:58;;;;;;;62.20;41.45;;;;;;;;;;4999436;28;20048;-92
2022/03/24 03:59:26;;;;;;;62.10;42.78;;;;;;;;;;4999653;28;20050;-95
2022/03/24 04:01:55;;;;;;;67.10;43.67;;;;;;;;;;5000615;28;20084;-93
2022/03/24 04:04:21;;;;;;;64.80;44.22;;;;;;;;;;4983878;28;20038;-94
2022/03/24 04:06:47;;;;;;;63.75;41.95;;;;;;;;;;5017850;28;20057;-94
2022/03/24 04:09:15;;;;;;;64.22;39.17;;;;;;;;;;5000136;28;20100;-93
2022/03/24 04:11:48;;;;;;;61.70;41.45;;;;;;;;;;5000985;28;20444;-93
2022/03/24 04:14:15;;;;;;;65.45;42.72;;;;;;;;;;4987180;28;20038;-92
2022/03/24 04:16:51;;;;;;;62.45;43.20;;;;;;;;;;4987545;28;20042;-94
2022/03/24 04:19:25;;;;;;;63.22;41.33;;;;;;;;;;4985288;28;20500;-93
2022/03/24 04:21:51;;;;;;;65.55;43.60;;;;;;;;;;5004736;28;20365;-92
2022/03/24 04:24:17;;;;;;;68.32;43.78;;;;;;;;;;4989915;28;20503;-94
2022/03/24 04:26:46;;;;;;;67.22;46.03;;;;;;;;;;5019197;28;20049;-93
2022/03/24 04:29:15;;;;;;;69.50;45.75;;;;;;;;;;4985630;28;20046;-92
2022/03/24 04:31:41;;;;;;;72.40;48.80;;;;;;;;;;4983744;28;20045;-93
2022/03/24 04:34:10;;;;;;;82.95;51.63;;;;;;;;;;4999270;28;20056;-92
2022/03/24 04:36:36;;;;;;;80.57;49.80;;;;;;;;;;4981751;28;20132;-91
2022/03/24 04:39:02;;;;;;;68.53;45.45;;;;;;;;;;5000054;28;20046;-94
2022/03/24 04:41:31;;;;;;;72.03;46.63;;;;;;;;;;4999559;28;20441;-94
2022/03/24 04:43:57;;;;;;;65.90;45.28;;;;;;;;;;4999736;28;20045;-94
2022/03/24 04:46:23;;;;;;;68.38;44.45;;;;;;;;;;4998904;28;20054;-90
2022/03/24 04:48:51;;;;;;;61.58;42.97;;;;;;;;;;4982686;28;20128;-92
2022/03/24 04:51:20;;;;;;;62.25;43.45;;;;;;;;;;4983364;28;20052;-94
2022/03/24 04:53:54;;;;;;;64.78;43.10;;;;;;;;;;4983103;28;20041;-92
2022/03/24 04:56:20;;;;;;;67.33;44.13;;;;;;;;;;4998980;28;20037;-93
2022/03/24 04:58:48;;;;;;;68.05;44.70;;;;;;;;;;4999068;28;20042;-93
2022/03/24 05:01:14;;;;;;;68.78;43.90;;;;;;;;;;4998443;28;20205;-92
2022/03/24 05:03:46;;;;;;;68.95;44.22;;;;;;;;;;4982920;28;20030;-94
2022/03/24 05:06:18;;;;;;;65.80;43.08;;;;;;;;;;4982210;28;20052;-93
2022/03/24 05:08:46;;;;;;;62.92;42.28;;;;;;;;;;4982839;28;20041;-93
2022/03/24 05:11:12;;;;;;;60.20;40.92;;;;;;;;;;4981347;28;20444;-92
2022/03/24 05:13:38;;;;;;;62.15;40.33;;;;;;;;;;4981827;28;20057;-93
2022/03/24 05:16:04;;;;;;;68.18;41.03;;;;;;;;;;5010634;28;20046;-92
2022/03/24 05:18:33;;;;;;;61.55;40.03;;;;;;;;;;4980685;28;20034;-91
2022/03/24 05:21:01;;;;;;;56.47;37.33;;;;;;;;;;4981386;28;20112;-91
2022/03/24 05:23:28;;;;;;;59.85;39.13;;;;;;;;;;4981454;28;20122;-91
2022/03/24 05:25:54;;;;;;;57.47;38.28;;;;;;;;;;4998731;28;20081;-91
2022/03/24 05:28:24;;;;;;;55.35;37.50;;;;;;;;;;4984150;28;20092;-93
2022/03/24 05:30:52;;;;;;;60.08;36.72;;;;;;;;;;4987332;28;20049;-92
2022/03/24 05:33:21;;;;;;;60.08;38.40;;;;;;;;;;4998285;28;20053;-94
2022/03/24 05:35:47;;;;;;;52.42;35.58;;;;;;;;;;4981576;28;20498;-93
2022/03/24 05:38:13;;;;;;;56.55;35.83;;;;;;;;;;4981410;28;20048;-93
2022/03/24 05:40:42;;;;;;;57.13;37.15;;;;;;;;;;4981223;28;20048;-93
2022/03/24 05:43:10;;;;;;;62.40;40.15;;;;;;;;;;4981369;28;20102;-93
2022/03/24 05:45:36;;;;;;;55.65;37.50;;;;;;;;;;4980549;28;20069;-95
2022/03/24 05:48:02;;;;;;;47.67;30.42;;;;;;;;;;4981066;28;20180;-93
2022/03/24 05:50:29;;;;;;;55.03;31.67;;;;;;;;;;4997238;28;20054;-93
2022/03/24 05:52:56;;;;;;;49.92;29.73;;;;;;;;;;4981064;28;20037;-93
2022/03/24 05:55:25;;;;;;;40.15;25.88;;;;;;;;;;4980608;28;20448;-95
2022/03/24 05:57:53;;;;;;;28.77;20.08;;;;;;;;;;4980987;28;20180;-93
2022/03/24 06:00:19;;;;;;;27.92;18.17;;;;;;;;;;4980984;28;20037;-91
2022/03/24 06:02:50;;;;;;;29.30;19.00;;;;;;;;;;4981078;28;20041;-94
2022/03/24 06:05:16;;;;;;;25.40;18.10;;;;;;;;;;4979939;28;20076;-94
2022/03/24 06:07:42;;;;;;;25.50;17.55;;;;;;;;;;4981948;28;20072;-92
2022/03/24 06:10:12;;;;;;;16.92;12.13;;;;;;;;;;4981028;28;20489;-91
2022/03/24 06:12:46;;;;;;;20.33;14.85;;;;;;;;;;4980903;28;20061;-92
2022/03/24 06:15:12;;;;;;;24.95;16.33;;;;;;;;;;4980860;28;20399;-93
2022/03/24 06:17:41;;;;;;;26.02;15.98;;;;;;;;;;4980955;28;20126;-93
2022/03/24 06:20:13;;;;;;;25.13;16.83;;;;;;;;;;4981736;28;20042;-93
2022/03/24 06:22:44;;;;;;;24.83;16.10;;;;;;;;;;4998332;28;20049;-92
2022/03/24 06:25:13;;;;;;;27.42;16.30;;;;;;;;;;4981923;28;20042;-90
2022/03/24 06:27:39;;;;;;;23.90;15.13;;;;;;;;;;4997891;28;20053;-92
2022/03/24 06:30:05;;;;;;;21.10;16.23;;;;;;;;;;4980281;28;20416;-91
2022/03/24 06:32:34;;;;;;;23.67;16.85;;;;;;;;;;4996184;28;20048;-93
2022/03/24 06:35:03;;;;;;;29.10;17.48;;;;;;;;;;4979552;28;20065;-94
2022/03/24 06:37:29;;;;;;;27.15;19.42;;;;;;;;;;4979621;28;20038;-93
2022/03/24 06:39:55;;;;;;;31.48;20.70;;;;;;;;;;4981712;28;20496;-93
2022/03/24 06:42:24;;;;;;;35.35;20.90;;;;;;;;;;4983565;28;20080;-94
2022/03/24 06:44:52;;;;;;;28.60;21.80;;;;;;;;;;4983300;28;20045;-92
2022/03/24 06:47:21;;;;;;;36.65;24.58;;;;;;;;;;4999314;28;20135;-91
2022/03/24 06:49:47;;;;;;;34.80;25.00;;;;;;;;;;4999924;28;20240;-93
2022/03/24 06:52:16;;;;;;;38.88;29.13;;;;;;;;;;4999578;28;20233;-91
2022/03/24 06:54:44;;;;;;;42.50;30.92;;;;;;;;;;5000212;28;20045;-92
2022/03/24 06:57:14;;;;;;;40.63;29.52;;;;;;;;;;5018145;28;20429;-92
2022/03/24 06:59:40;;;;;;;38.58;28.38;;;;;;;;;;5002248;28;20041;-93
2022/03/24 07:02:07;;;;;;;37.35;27.98;;;;;;;;;;5018389;28;20191;-93
2022/03/24 07:04:33;;;;;;;38.92;28.40;;;;;;;;;;5002480;28;20041;-94
2022/03/24 07:06:59;;;;;;;53.33;38.35;;;;;;;;;;5018329;28;20471;-93
2022/03/24 07:09:25;;;;;;;61.05;43.53;;;;;;;;;;5001928;28;20038;-94
2022/03/24 07:11:55;;;;;;;66.13;42.53;;;;;;;;;;5001964;28;20041;-92
2022/03/24 07:14:21;;;;;;;71.68;49.60;;;;;;;;;;5002050;28;20046;-92
2022/03/24 07:16:47;;;;;;;82.45;53.65;;;;;;;;;;5001775;28;20050;-93
2022/03/24 07:19:13;;;;;;;74.50;51.00;;;;;;;;;;5018329;28;20099;-93
2022/03/24 07:21:39;;;;;;;74.45;51.13;;;;;;;;;;5001853;28;20115;-92
2022/03/24 07:24:05;;;;;;;75.35;50.45;;;;;;;;;;5018266;28;20429;-90
2022/03/24 07:26:31;;;;;;;79.50;50.05;;;;;;;;;;5001695;28;20052;-94
2022/03/24 07:28:57;;;;;;;70.95;49.05;;;;;;;;;;5001766;28;20037;-92
2022/03/24 07:31:24;;;;;;;75.60;50.38;;;;;;;;;;5017954;28;20045;-91
2022/03/24 07:33:51;;;;;;;77.45;48.95;;;;;;;;;;5017967;28;20041;-93
2022/03/24 07:36:20;;;;;;;74.57;48.97;;;;;;;;;;5001329;28;20045;-93
2022/03/24 07:38:46;;;;;;;67.40;46.60;;;;;;;;;;5001579;28;20552;-92
2022/03/24 07:41:12;;;;;;;68.78;47.72;;;;;;;;;;5017758;28;20044;-91
2022/03/24 07:43:39;;;;;;;67.90;48.10;;;;;;;;;;5001324;28;20049;-91
2022/03/24 07:46:05;;;;;;;64.10;46.72;;;;;;;;;;5000947;28;20053;-92
2022/03/24 07:48:31;;;;;;;63.58;47.03;;;;;;;;;;5000988;28;20099;-92
2022/03/24 07:50:57;;;;;;;64.68;48.30;;;;;;;;;;5000109;28;20041;-93
2022/03/24 07:53:33;;;;;;;64.70;44.85;;;;;;;;;;5017427;28;20043;-93
2022/03/24 07:56:00;;;;;;;59.58;44.22;;;;;;;;;;5001326;28;20066;-94
2022/03/24 07:58:26;;;;;;;60.47;42.20;;;;;;;;;;5001520;28;20048;-91
2022/03/24 08:00:52;;;;;;;60.65;43.17;;;;;;;;;;5017203;28;20037;-92
2022/03/24 08:03:19;;;;;;;61.15;40.17;;;;;;;;;;5001088;28;20042;-92
2022/03/24 08:05:46;;;;;;;57.10;41.90;;;;;;;;;;5001040;28;20124;-93
2022/03/24 08:08:13;;;;;;;61.92;42.88;;;;;;;;;;5017125;28;20136;-93
2022/03/24 08:10:42;;;;;;;61.50;42.80;;;;;;;;;;5000688;28;20124;-92
2022/03/24 08:13:09;;;;;;;55.25;41.45;;;;;;;;;;5017800;28;20286;-93
2022/03/24 08:15:36;;;;;;;59.03;42.20;;;;;;;;;;5000485;28;20107;-92
2022/03/24 08:18:04;;;;;;;59.72;43.90;;;;;;;;;;5017042;28;20488;-92
2022/03/24 08:20:30;;;;;;;58.58;42.33;;;;;;;;;;5017366;28;20064;-93
2022/03/24 08:22:56;;;;;;;53.40;40.92;;;;;;;;;;4991532;28;20042;-92
2022/03/24 08:25:22;;;;;;;54.80;39.55;;;;;;;;;;5000706;28;20042;-91
2022/03/24 08:27:48;;;;;;;56.50;40.53;;;;;;;;;;5017029;28;20038;-93
2022/03/24 08:30:15;;;;;;;57.85;39.90;;;;;;;;;;5000446;28;20111;-93
2022/03/24 08:32:41;;;;;;;51.70;38.83;;;;;;;;;;5016674;28;20042;-92
2022/03/24 08:35:08;;;;;;;51.63;36.35;;;;;;;;;;5000188;28;20072;-92
2022/03/24 08:37:34;;;;;;;54.35;38.83;;;;;;;;;;5016710;28;20423;-92
2022/03/24 08:40:00;;;;;;;56.15;39.75;;;;;;;;;;5016707;28;20103;-93
2022/03/24 08:42:26;;;;;;;54.08;36.72;;;;;;;;;;5000380;28;20037;-94
2022/03/24 08:44:54;;;;;;;51.42;37.25;;;;;;;;;;5016429;28;20132;-91
2022/03/24 08:47:21;;;;;;;51.75;38.88;;;;;;;;;;5015919;28;20053;-93
2022/03/24 08:49:47;;;;;;;51.33;36.05;;;;;;;;;;5000071;28;20042;-93
2022/03/24 08:52:13;;;;;;;53.40;38.47;;;;;;;;;;4999794;28;20214;-94
2022/03/24 08:54:39;;;;;;;55.63;38.15;;;;;;;;;;5017273;28;20361;-93
2022/03/24 08:57:05;;;;;;;52.13;37.85;;;;;;;;;;5000157;28;20511;-91
2022/03/24 08:59:32;;;;;;;52.95;36.10;;;;;;;;;;5016340;28;20099;-93
2022/03/24 09:01:58;;;;;;;45.78;34.72;;;;;;;;;;5016687;28;20038;-92
2022/03/24 09:04:26;;;;;;;48.63;35.95;;;;;;;;;;5000161;28;20614;-92
2022/03/24 09:06:55;;;;;;;54.10;37.72;;;;;;;;;;4999906;28;20038;-93
2022/03/24 09:09:22;;;;;;;51.75;36.92;;;;;;;;;;5016357;28;20464;-92
2022/03/24 09:11:49;;;;;;;58.05;37.85;;;;;;;;;;5017309;28;20041;-91
2022/03/24 09:14:16;;;;;;;48.08;35.05;;;;;;;;;;5000298;28;20033;-91
2022/03/24 09:16:42;;;;;;;54.90;38.42;;;;;;;;;;5015788;28;20045;-92
2022/03/24 09:19:08;;;;;;;49.10;36.80;;;;;;;;;;5015733;28;20408;-91
2022/03/24 09:21:34;;;;;;;51.95;37.53;;;;;;;;;;5015962;28;20041;-91
2022/03/24 09:24:00;;;;;;;51.78;37.45;;;;;;;;;;4999372;28;20611;-90
2022/03/24 09:26:26;;;;;;;48.50;36.95;;;;;;;;;;5015816;28;20042;-93
2022/03/24 09:28:52;;;;;;;49.67;35.80;;;;;;;;;;4999233;28;20041;-92
2022/03/24 09:31:19;;;;;;;52.08;38.83;;;;;;;;;;4999737;28;20073;-93
2022/03/24 09:33:45;;;;;;;48.45;36.80;;;;;;;;;;5015450;28;20041;-92
2022/03/24 09:36:11;;;;;;;52.83;37.05;;;;;;;;;;4999372;28;20041;-93
2022/03/24 09:38:38;;;;;;;47.70;35.78;;;;;;;;;;4999318;28;20472;-92
2022/03/24 09:41:05;;;;;;;49.80;36.65;;;;;;;;;;5015634;28;20095;-92
2022/03/24 09:43:34;;;;;;;49.92;38.22;;;;;;;;;;4998391;28;20034;-93
2022/03/24 09:46:01;;;;;;;54.92;35.63;;;;;;;;;;4996488;28;20061;-92
2022/03/24 09:48:27;;;;;;;50.50;34.95;;;;;;;;;;5012283;28;20046;-91
2022/03/24 09:50:53;;;;;;;46.50;32.67;;;;;;;;;;4996414;28;20096;-92
2022/03/24 09:53:20;;;;;;;44.00;33.92;;;;;;;;;;5012343;28;20062;-91
2022/03/24 09:55:50;;;;;;;51.33;34.45;;;;;;;;;;4996253;28;20049;-94
2022/03/24 09:58:18;;;;;;;52.55;34.78;;;;;;;;;;5012904;28;20512;-92
2022/03/24 10:00:44;;;;;;;48.58;31.60;;;;;;;;;;4995888;28;20044;-91
2022/03/24 10:03:15;;;;;;;49.53;34.17;;;;;;;;;;4995675;28;20034;-91
2022/03/24 10:06:02;;;;;;;41.35;30.23;;;;;;;;;;4996073;28;20046;-92
2022/03/24 10:08:29;;;;;;;50.03;31.63;;;;;;;;;;4995741;28;20037;-91
2022/03/24 10:10:58;;;;;;;44.58;28.75;;;;;;;;;;5010274;28;20042;-91
2022/03/24 10:13:25;;;;;;;46.80;29.65;;;;;;;;;;4992900;28;20512;-92
2022/03/24 10:15:54;;;;;;;44.55;31.27;;;;;;;;;;4993004;28;20366;-91
2022/03/24 10:18:27;;;;;;;47.20;31.50;;;;;;;;;;4976333;28;20039;-93
2022/03/24 10:20:53;;;;;;;44.25;29.75;;;;;;;;;;4984897;28;20039;-92
2022/03/24 10:23:19;;;;;;;45.67;31.50;;;;;;;;;;4997772;28;20120;-91
2022/03/24 10:25:48;;;;;;;43.35;29.52;;;;;;;;;;4998988;28;20046;-91
2022/03/24 10:28:18;;;;;;;44.20;29.80;;;;;;;;;;5001737;28;20057;-90
2022/03/24 10:30:50;;;;;;;44.47;30.33;;;;;;;;;;4980842;28;20133;-92
2022/03/24 10:33:35;;;;;;;42.20;29.23;;;;;;;;;;4999586;28;20047;-93
2022/03/24 10:36:07;;;;;;;47.03;27.45;;;;;;;;;;4980197;28;20104;-94
2022/03/24 10:38:36;;;;;;;37.45;26.50;;;;;;;;;;4997875;28;20124;-94
2022/03/24 10:41:12;;;;;;;40.53;27.98;;;;;;;;;;4995008;28;20039;-91
2022/03/24 10:43:39;;;;;;;43.55;28.67;;;;;;;;;;4996063;28;20053;-93
2022/03/24 10:46:15;;;;;;;42.88;28.23;;;;;;;;;;4969066;28;20069;-91
2022/03/24 10:48:41;;;;;;;46.65;29.83;;;;;;;;;;4973089;28;20449;-93
2022/03/24 10:51:10;;;;;;;47.35;29.25;;;;;;;;;;4960747;28;20105;-93
2022/03/24 10:53:42;;;;;;;45.90;32.10;;;;;;;;;;4977349;28;20047;-92
2022/03/24 10:56:12;;;;;;;43.67;30.23;;;;;;;;;;4957117;28;20401;-91
2022/03/24 10:58:44;;;;;;;42.50;28.83;;;;;;;;;;4973058;28;20490;-94
2022/03/24 11:01:12;;;;;;;51.85;28.95;;;;;;;;;;4958127;28;20085;-91
2022/03/24 11:03:43;;;;;;;40.03;28.15;;;;;;;;;;4957844;28;20043;-90
2022/03/24 11:06:09;;;;;;;44.30;28.08;;;;;;;;;;4955891;28;20058;-92
2022/03/24 11:08:35;;;;;;;39.47;27.55;;;;;;;;;;4956796;28;20039;-90
2022/03/24 11:11:05;;;;;;;41.97;26.95;;;;;;;;;;4972875;28;20046;-92
2022/03/24 11:13:39;;;;;;;45.22;28.25;;;;;;;;;;4973724;28;20042;-93
2022/03/24 11:16:06;;;;;;;46.00;29.13;;;;;;;;;;4957030;28;20042;-90
2022/03/24 11:18:32;;;;;;;44.15;29.45;;;;;;;;;;4973300;28;20074;-91
2022/03/24 11:21:03;;;;;;;38.13;24.95;;;;;;;;;;4973678;28;20110;-91
2022/03/24 11:23:34;;;;;;;41.70;28.60;;;;;;;;;;4972972;28;20342;-91
2022/03/24 11:26:02;;;;;;;47.33;30.27;;;;;;;;;;4958550;28;20057;-90
2022/03/24 11:28:28;;;;;;;42.88;28.30;;;;;;;;;;4960358;28;20134;-91
2022/03/24 11:30:54;;;;;;;41.85;28.38;;;;;;;;;;4960409;28;20050;-90
2022/03/24 11:33:20;;;;;;;45.00;28.88;;;;;;;;;;4976345;28;20047;-91
2022/03/24 11:35:49;;;;;;;41.78;28.63;;;;;;;;;;4975958;28;20047;-89
2022/03/24 11:38:16;;;;;;;46.85;29.30;;;;;;;;;;4959897;28;20126;-92
2022/03/24 11:40:42;;;;;;;43.70;31.30;;;;;;;;;;4975697;28;20122;-92
2022/03/24 11:43:14;;;;;;;43.38;30.75;;;;;;;;;;4976276;28;20046;-90
2022/03/24 11:45:43;;;;;;;47.50;31.20;;;;;;;;;;4981472;28;20062;-91
2022/03/24 11:48:10;;;;;;;46.53;31.48;;;;;;;;;;4979519;28;20461;-92
2022/03/24 11:50:46;;;;;;;42.92;29.38;;;;;;;;;;4979356;28;20038;-92
2022/03/24 11:53:15;;;;;;;38.45;27.30;;;;;;;;;;4995737;28;20097;-91
2022/03/24 11:55:45;;;;;;;44.20;29.85;;;;;;;;;;4995035;28;20089;-92
2022/03/24 11:58:11;;;;;;;44.95;29.67;;;;;;;;;;4996062;28;20046;-92
2022/03/24 12:00:40;;;;;;;44.38;30.58;;;;;;;;;;4996342;28;20061;-91
2022/03/24 12:03:26;;;;;;;43.20;31.40;;;;;;;;;;4979787;28;20042;-91
2022/03/24 12:05:53;;;;;;;;;;;;;;;;;;4978894;28;20045;-92
2022/03/24 12:08:29;;;;;;;42.67;29.73;;;;;;;;;;4979087;28;20024;-92
2022/03/24 12:10:55;;;;;;;44.42;32.30;;;;;;;;;;4995336;28;20050;-91
2022/03/24 12:13:25;;;;;;;52.85;31.60;;;;;;;;;;4995161;28;20125;-92
2022/03/24 12:16:10;;;;;;;49.50;35.20;;;;;;;;;;4994745;28;20053;-91
2022/03/24 12:18:43;;;;;;;52.60;29.67;;;;;;;;;;4995312;28;20038;-93
2022/03/24 12:21:18;;;;;;;43.28;31.15;;;;;;;;;;4994874;28;20054;-92
2022/03/24 12:24:03;;;;;;;50.90;30.13;;;;;;;;;;4962977;28;20513;-90
2022/03/24 12:26:30;;;;;;;50.95;30.98;;;;;;;;;;4994971;28;20058;-91
2022/03/24 12:29:11;;;;;;;43.97;31.27;;;;;;;;;;4994895;28;20050;-90
2022/03/24 12:31:56;;;;;;;52.95;31.60;;;;;;;;;;4995008;28;20133;-92
2022/03/24 12:34:22;;;;;;;45.45;31.27;;;;;;;;;;4978480;28;20042;-91
2022/03/24 12:36:51;;;;;;;45.50;30.35;;;;;;;;;;4994064;28;20046;-93
2022/03/24 12:39:33;;;;;;;42.65;29.10;;;;;;;;;;4994609;28;20042;-93
2022/03/24 12:42:05;;;;;;;40.28;28.35;;;;;;;;;;4995416;28;20385;-92
2022/03/24 12:44:55;;;;;;;41.92;28.95;;;;;;;;;;4994366;28;20038;-93
2022/03/24 12:47:30;;;;;;;44.55;29.30;;;;;;;;;;4998049;28;20068;-94
2022/03/24 12:49:59;;;;;;;45.58;29.98;;;;;;;;;;5017015;28;20041;-92
2022/03/24 12:52:44;;;;;;;40.90;30.00;;;;;;;;;;5020633;28;20038;-92
2022/03/24 12:55:33;;;;;;;44.25;30.10;;;;;;;;;;5015910;28;20053;-93
2022/03/24 12:58:03;;;;;;;41.35;27.30;;;;;;;;;;5017687;28;20041;-92
2022/03/24 13:00:36;;;;;;;44.35;28.27;;;;;;;;;;5017067;28;20037;-92
2022/03/24 13:03:06;;;;;;;38.97;27.55;;;;;;;;;;5018910;28;20112;-91
2022/03/24 13:05:33;;;;;;;42.40;27.85;;;;;;;;;;5017689;28;20098;-94
2022/03/24 13:08:02;;;;;;;41.70;27.38;;;;;;;;;;5017743;28;20084;-91
2022/03/24 13:10:31;;;;;;;46.97;30.50;;;;;;;;;;5005385;28;20507;-92
2022/03/24 13:12:58;;;;;;;48.22;31.75;;;;;;;;;;4999143;28;20228;-90
2022/03/24 13:15:30;;;;;;;47.58;30.95;;;;;;;;;;4981652;28;20046;-93
2022/03/24 13:18:01;;;;;;;48.83;32.72;;;;;;;;;;4983107;28;20096;-92
2022/03/24 13:20:55;;;;;;;45.65;33.40;;;;;;;;;;4996196;28;20045;-94
2022/03/24 13:23:28;;;;;;;51.40;35.35;;;;;;;;;;4993901;28;20052;-92
2022/03/24 13:25:54;;;;;;;57.83;38.08;;;;;;;;;;4997225;28;20077;-91
2022/03/24 13:28:28;;;;;;;54.88;36.40;;;;;;;;;;4997299;28;20045;-91
2022/03/24 13:30:57;;;;;;;58.63;36.70;;;;;;;;;;4980147;28;20046;-92
2022/03/24 13:33:27;;;;;;;58.28;38.65;;;;;;;;;;4996735;28;20046;-92
2022/03/24 13:35:55;;;;;;;52.90;39.42;;;;;;;;;;5007878;28;20041;-91
2022/03/24 13:38:24;;;;;;;56.22;37.42;;;;;;;;;;5018220;28;20069;-91
2022/03/24 13:40:53;;;;;;;57.15;40.70;;;;;;;;;;5016634;28;20042;-91
2022/03/24 13:43:21;;;;;;;56.20;39.38;;;;;;;;;;5000770;28;20038;-93
2022/03/24 13:45:48;;;;;;;54.08;37.83;;;;;;;;;;5002467;28;20046;-91
2022/03/24 13:48:19;;;;;;;60.65;37.97;;;;;;;;;;4996013;28;20045;-92
2022/03/24 13:50:46;;;;;;;54.30;40.53;;;;;;;;;;4996018;28;20357;-91
2022/03/24 13:53:14;;;;;;;51.60;38.70;;;;;;;;;;4996566;28;20044;-92
2022/03/24 13:55:40;;;;;;;49.65;37.30;;;;;;;;;;4995260;28;20462;-92
2022/03/24 13:58:10;;;;;;;54.30;37.67;;;;;;;;;;4980302;28;20128;-90
2022/03/24 14:00:39;;;;;;;51.50;36.42;;;;;;;;;;4995741;28;20038;-92
2022/03/24 14:03:21;;;;;;;55.05;37.70;;;;;;;;;;4997157;28;20042;-91
2022/03/24 14:06:01;;;;;;;50.95;36.88;;;;;;;;;;4995953;28;20045;-90
2022/03/24 14:08:27;;;;;;;51.85;35.85;;;;;;;;;;4997116;28;20042;-91
2022/03/24 14:10:54;;;;;;;54.13;37.25;;;;;;;;;;4996339;28;20124;-91
2022/03/24 14:13:26;;;;;;;56.20;37.20;;;;;;;;;;4980590;28;20060;-92
2022/03/24 14:16:06;;;;;;;53.05;36.13;;;;;;;;;;4996687;28;20465;-92
2022/03/24 14:18:32;;;;;;;51.70;35.33;;;;;;;;;;4996501;28;20121;-91
2022/03/24 14:21:01;;;;;;;49.85;35.65;;;;;;;;;;4996394;28;20069;-91
2022/03/24 14:23:36;;;;;;;50.88;34.88;;;;;;;;;;4997087;28;20040;-93
2022/03/24 14:26:06;;;;;;;45.47;33.83;;;;;;;;;;4997005;28;20049;-91
2022/03/24 14:28:33;;;;;;;50.08;34.25;;;;;;;;;;4995920;28;20061;-92